Time;durP1;ratioP1;P1;durP2;ratioP2;P2;SDS_P1;SDS_P2;PMS_P1;PMS_P2;Temp;Humidity;BMP_temperature;BMP_pressure;BME280_temperature;BME280_humidity;BME280_pressure;Samples;Min_cycle;Max_cycle;Signal;HPM_P1;HPM_P2
2023/10/22 00:01:28;;;;;;;0.73;0.73;;;19.70;76.20;;;;;;5108854;27;43605;-72
2023/10/22 00:03:56;;;;;;;0.70;0.70;;;19.70;76.30;;;;;;5108898;27;43448;-72
2023/10/22 00:06:24;;;;;;;0.80;0.80;;;19.70;76.40;;;;;;5108290;27;43467;-71
2023/10/22 00:08:52;;;;;;;0.70;0.70;;;19.70;76.80;;;;;;5108314;27;43435;-71
2023/10/22 00:11:22;;;;;;;0.70;0.70;;;19.70;76.70;;;;;;5107964;27;43953;-71
2023/10/22 00:13:50;;;;;;;0.70;0.70;;;19.80;76.20;;;;;;5108311;27;43440;-71
2023/10/22 00:16:18;;;;;;;0.80;0.80;;;20.00;75.90;;;;;;5108913;27;43396;-71
2023/10/22 00:18:46;;;;;;;1.33;0.73;;;20.10;75.30;;;;;;5101294;27;43509;-71
2023/10/22 00:21:14;;;;;;;0.90;0.90;;;20.10;75.00;;;;;;5108335;27;43867;-72
2023/10/22 00:23:42;;;;;;;0.80;0.80;;;20.10;75.00;;;;;;5108792;27;43401;-71
2023/10/22 00:26:13;;;;;;;0.70;0.70;;;20.00;75.20;;;;;;5108437;27;43351;-71
2023/10/22 00:28:43;;;;;;;0.80;0.80;;;20.00;75.50;;;;;;5106842;27;43486;-71
2023/10/22 00:31:12;;;;;;;2.73;0.80;;;19.90;75.90;;;;;;5122878;27;46432;-71
2023/10/22 00:33:40;;;;;;;0.70;0.70;;;19.80;76.00;;;;;;5105280;27;44697;-71
2023/10/22 00:36:08;;;;;;;0.70;0.70;;;19.80;75.90;;;;;;5103875;27;44034;-71
2023/10/22 00:38:36;;;;;;;0.87;0.87;;;19.80;75.90;;;;;;5107515;27;43442;-71
2023/10/22 00:41:04;;;;;;;0.80;0.80;;;19.80;76.00;;;;;;5107837;27;43960;-72
2023/10/22 00:43:32;;;;;;;0.97;0.97;;;19.70;76.20;;;;;;5108343;27;44402;-71
2023/10/22 00:46:02;;;;;;;0.80;0.80;;;19.70;76.50;;;;;;5108408;27;43476;-70
2023/10/22 00:48:30;;;;;;;0.80;0.80;;;19.80;76.20;;;;;;5106474;27;43470;-70
2023/10/22 00:50:59;;;;;;;0.70;0.70;;;19.80;75.90;;;;;;5106097;27;46124;-70
2023/10/22 00:53:30;;;;;;;0.77;0.77;;;19.80;75.80;;;;;;5124037;27;43882;-70
2023/10/22 00:55:59;;;;;;;0.80;0.80;;;19.80;75.80;;;;;;5106121;27;43537;-70
2023/10/22 00:58:27;;;;;;;0.80;0.80;;;19.80;76.20;;;;;;5106452;27;44038;-70
2023/10/22 01:00:55;;;;;;;0.90;0.90;;;19.80;76.20;;;;;;5105931;27;45798;-70
2023/10/22 01:03:24;;;;;;;0.70;0.70;;;19.80;76.10;;;;;;5105308;27;44918;-70
2023/10/22 01:05:53;;;;;;;0.60;0.60;;;19.80;76.10;;;;;;5104808;27;43525;-72
2023/10/22 01:08:21;;;;;;;0.70;0.70;;;19.70;76.20;;;;;;5127655;27;43560;-71
2023/10/22 01:10:51;;;;;;;0.80;0.80;;;19.70;76.60;;;;;;5111977;27;43957;-71
2023/10/22 01:13:19;;;;;;;0.77;0.77;;;19.70;76.60;;;;;;5108956;27;44392;-71
2023/10/22 01:15:47;;;;;;;0.70;0.70;;;19.70;76.50;;;;;;5109989;27;43510;-71
2023/10/22 01:18:15;;;;;;;0.60;0.60;;;19.70;76.40;;;;;;5110189;27;43568;-72
2023/10/22 01:20:45;;;;;;;0.57;0.57;;;19.60;76.40;;;;;;5126901;27;45969;-71
2023/10/22 01:23:14;;;;;;;0.70;0.70;;;19.70;76.80;;;;;;5109746;27;45119;-71
2023/10/22 01:25:42;;;;;;;0.60;0.60;;;19.70;76.80;;;;;;5109761;27;43695;-72
2023/10/22 01:28:10;;;;;;;0.70;0.70;;;19.80;76.40;;;;;;5110438;27;43418;-71
2023/10/22 01:30:38;;;;;;;0.80;0.80;;;19.90;75.90;;;;;;5126466;27;45355;-72
2023/10/22 01:33:06;;;;;;;0.70;0.70;;;20.00;75.40;;;;;;5111250;27;43469;-71
2023/10/22 01:35:35;;;;;;;0.70;0.70;;;20.10;75.20;;;;;;5109539;27;43465;-71
2023/10/22 01:38:03;;;;;;;0.80;0.80;;;20.00;75.10;;;;;;5111623;27;43486;-71
2023/10/22 01:40:33;;;;;;;0.60;0.60;;;20.00;75.30;;;;;;5108738;27;45746;-71
2023/10/22 01:43:01;;;;;;;0.70;0.70;;;19.90;75.40;;;;;;5126398;27;44737;-71
2023/10/22 01:45:29;;;;;;;0.70;0.70;;;19.80;75.90;;;;;;5109786;27;43420;-71
2023/10/22 01:47:57;;;;;;;0.70;0.70;;;19.80;76.70;;;;;;5127232;27;44191;-71
2023/10/22 01:50:25;;;;;;;0.57;0.57;;;19.80;76.00;;;;;;5109544;27;46010;-71
2023/10/22 01:52:53;;;;;;;0.80;0.80;;;19.80;76.00;;;;;;5109353;27;44557;-71
2023/10/22 01:55:21;;;;;;;0.67;0.67;;;19.80;76.10;;;;;;5129825;27;43486;-69
2023/10/22 01:57:50;;;;;;;0.63;0.63;;;19.70;76.30;;;;;;5126891;27;43553;-69
2023/10/22 02:00:19;;;;;;;0.80;0.80;;;19.70;76.60;;;;;;5142000;27;45669;-69
2023/10/22 02:02:47;;;;;;;0.70;0.70;;;19.80;76.40;;;;;;5125578;27;45285;-69
2023/10/22 02:05:16;;;;;;;1.03;0.70;;;19.90;75.90;;;;;;5125849;27;43436;-69
2023/10/22 02:07:44;;;;;;;0.90;0.90;;;19.90;75.70;;;;;;5128197;27;43474;-69
2023/10/22 02:10:12;;;;;;;0.70;0.70;;;19.90;75.60;;;;;;5126148;27;45922;-69
2023/10/22 02:12:40;;;;;;;0.60;0.60;;;19.90;75.90;;;;;;5126665;27;44993;-69
2023/10/22 02:15:10;;;;;;;0.60;0.60;;;19.90;75.90;;;;;;5124788;27;43551;-69
2023/10/22 02:17:39;;;;;;;0.70;0.70;;;19.90;75.90;;;;;;5126323;27;43537;-69
2023/10/22 02:20:09;;;;;;;0.70;0.70;;;19.80;75.70;;;;;;5126520;27;44651;-69
2023/10/22 02:22:37;;;;;;;0.70;0.70;;;19.80;75.90;;;;;;5126260;27;43390;-69
2023/10/22 02:25:06;;;;;;;0.70;0.70;;;19.80;76.10;;;;;;5126010;27;43466;-69
2023/10/22 02:27:35;;;;;;;0.60;0.60;;;19.70;76.50;;;;;;5122904;27;43431;-69
2023/10/22 02:30:03;;;;;;;0.70;0.70;;;19.70;76.40;;;;;;5126368;27;45683;-69
2023/10/22 02:32:32;;;;;;;0.70;0.70;;;19.70;76.30;;;;;;5125450;27;43537;-69
2023/10/22 02:35:01;;;;;;;0.60;0.60;;;19.70;76.20;;;;;;5124283;27;43447;-69
2023/10/22 02:37:29;;;;;;;0.60;0.60;;;19.60;76.30;;;;;;5142604;27;43719;-69
2023/10/22 02:39:58;;;;;;;0.70;0.70;;;19.60;76.60;;;;;;5124632;27;45355;-69
2023/10/22 02:42:27;;;;;;;0.70;0.70;;;19.60;76.70;;;;;;5122507;27;44978;-69
2023/10/22 02:44:55;;;;;;;0.60;0.60;;;19.70;76.40;;;;;;5125669;27;43567;-69
2023/10/22 02:47:23;;;;;;;0.70;0.70;;;19.90;76.00;;;;;;5125580;27;43572;-69
2023/10/22 02:49:54;;;;;;;0.80;0.80;;;20.00;75.40;;;;;;5142640;27;45307;-69
2023/10/22 02:52:22;;;;;;;0.70;0.70;;;20.10;75.20;;;;;;5124893;27;44922;-69
2023/10/22 02:54:50;;;;;;;0.90;0.90;;;20.00;75.10;;;;;;5124205;27;43495;-71
2023/10/22 02:57:18;;;;;;;0.50;0.50;;;20.00;75.30;;;;;;5142769;27;43464;-70
2023/10/22 02:59:47;;;;;;;0.80;0.80;;;19.90;75.40;;;;;;5139487;27;45469;-70
2023/10/22 03:02:15;;;;;;;0.53;0.53;;;19.80;75.70;;;;;;5126382;27;43407;-69
2023/10/22 03:04:43;;;;;;;0.70;0.70;;;19.80;76.10;;;;;;5121541;27;43450;-70
2023/10/22 03:07:13;;;;;;;0.70;0.70;;;19.80;76.10;;;;;;5121997;27;43564;-71
2023/10/22 03:09:41;;;;;;;0.60;0.60;;;19.80;76.10;;;;;;5107847;27;45477;-71
2023/10/22 03:12:11;;;;;;;0.60;0.60;;;19.70;76.10;;;;;;5125340;27;44388;-71
2023/10/22 03:14:41;;;;;;;0.60;0.60;;;19.70;76.20;;;;;;5108209;27;43423;-71
2023/10/22 03:17:09;;;;;;;0.70;0.70;;;19.60;76.50;;;;;;5124813;27;43584;-71
2023/10/22 03:19:37;;;;;;;0.63;0.63;;;19.70;76.50;;;;;;5106779;27;45832;-71
2023/10/22 03:22:08;;;;;;;0.70;0.70;;;19.80;76.00;;;;;;5107366;27;44023;-71
2023/10/22 03:24:38;;;;;;;0.67;0.67;;;19.90;75.80;;;;;;5109370;27;43433;-72
2023/10/22 03:27:06;;;;;;;0.60;0.60;;;19.90;75.70;;;;;;5111911;27;43456;-67
2023/10/22 03:29:34;;;;;;;0.67;0.67;;;19.80;75.80;;;;;;5108305;27;45453;-67
2023/10/22 03:32:03;;;;;;;0.60;0.60;;;19.80;75.80;;;;;;5112189;27;43418;-67
2023/10/22 03:34:31;;;;;;;0.70;0.70;;;19.90;75.90;;;;;;5110378;27;43298;-69
2023/10/22 03:37:00;;;;;;;0.60;0.60;;;19.80;75.70;;;;;;5110845;27;43791;-66
2023/10/22 03:39:30;;;;;;;0.50;0.50;;;19.80;75.80;;;;;;5126269;27;45488;-67
2023/10/22 03:42:00;;;;;;;0.57;0.57;;;19.80;76.00;;;;;;5108216;27;44733;-67
2023/10/22 03:44:30;;;;;;;0.60;0.60;;;19.70;76.30;;;;;;5111557;27;43417;-66
2023/10/22 03:46:58;;;;;;;0.60;0.60;;;19.70;76.30;;;;;;5110029;27;43815;-67
2023/10/22 03:49:26;;;;;;;0.60;0.60;;;19.70;76.20;;;;;;5111532;27;44332;-67
2023/10/22 03:51:55;;;;;;;0.80;0.80;;;19.70;76.20;;;;;;5109893;27;43510;-67
2023/10/22 03:54:23;;;;;;;0.60;0.60;;;19.70;76.30;;;;;;5111361;27;43464;-66
2023/10/22 03:56:51;;;;;;;0.60;0.60;;;19.60;76.60;;;;;;5112527;27;43556;-67
2023/10/22 03:59:21;;;;;;;0.60;0.60;;;19.70;76.60;;;;;;5111285;27;43581;-67
2023/10/22 04:01:51;;;;;;;0.60;0.60;;;19.70;76.40;;;;;;5110899;27;43406;-66
2023/10/22 04:04:19;;;;;;;0.60;0.60;;;19.70;76.40;;;;;;5108902;27;43520;-67
2023/10/22 04:06:47;;;;;;;0.70;0.70;;;19.70;76.60;;;;;;5110988;27;43605;-66
2023/10/22 04:09:15;;;;;;;0.60;0.60;;;19.60;76.70;;;;;;5112097;27;43590;-66
2023/10/22 04:11:43;;;;;;;0.60;0.60;;;19.70;76.80;;;;;;5109846;27;43455;-66
2023/10/22 04:14:11;;;;;;;0.60;0.60;;;19.80;76.40;;;;;;5109681;27;43393;-67
2023/10/22 04:16:40;;;;;;;0.60;0.60;;;19.90;75.90;;;;;;5109180;27;43527;-70
2023/10/22 04:19:09;;;;;;;0.60;0.60;;;20.00;75.30;;;;;;5105620;27;44910;-70
2023/10/22 04:21:39;;;;;;;0.53;0.53;;;20.10;75.00;;;;;;5107355;27;43440;-70
2023/10/22 04:24:08;;;;;;;0.60;0.60;;;20.10;74.90;;;;;;5107933;27;43472;-70
2023/10/22 04:26:36;;;;;;;0.60;0.60;;;20.10;75.00;;;;;;5108650;27;43350;-70
2023/10/22 04:29:04;;;;;;;0.70;0.70;;;20.00;75.30;;;;;;5108180;27;43809;-70
2023/10/22 04:31:32;;;;;;;0.77;0.77;;;19.90;75.70;;;;;;5106574;27;44045;-73
2023/10/22 04:34:02;;;;;;;0.80;0.80;;;19.90;75.80;;;;;;5107976;27;43991;-70
2023/10/22 04:36:30;;;;;;;0.60;0.60;;;19.80;75.80;;;;;;5109016;27;43520;-65
2023/10/22 04:38:58;;;;;;;0.60;0.60;;;19.80;75.70;;;;;;5110853;27;43919;-66
2023/10/22 04:41:26;;;;;;;0.40;0.40;;;19.80;75.90;;;;;;5103899;27;43424;-66
2023/10/22 04:43:54;;;;;;;0.53;0.53;;;19.70;76.10;;;;;;5110398;27;43445;-66
2023/10/22 04:46:22;;;;;;;1.10;0.53;;;19.70;76.50;;;;;;5110887;27;43345;-66
2023/10/22 04:48:50;;;;;;;0.63;0.63;;;19.70;76.30;;;;;;5110734;27;43922;-66
2023/10/22 04:51:21;;;;;;;0.40;0.40;;;19.70;76.20;;;;;;5108570;27;43986;-66
2023/10/22 04:53:49;;;;;;;0.77;0.77;;;19.70;76.20;;;;;;5109512;27;43413;-66
2023/10/22 04:56:17;;;;;;;0.40;0.40;;;19.60;76.20;;;;;;5110820;27;43680;-67
2023/10/22 04:58:45;;;;;;;0.57;0.57;;;19.70;76.70;;;;;;5110834;27;45096;-67
2023/10/22 05:01:13;;;;;;;0.60;0.60;;;19.60;76.60;;;;;;5109198;27;43418;-66
2023/10/22 05:03:41;;;;;;;0.50;0.50;;;19.80;76.20;;;;;;5108348;27;43429;-66
2023/10/22 05:06:09;;;;;;;0.43;0.43;;;19.90;76.50;;;;;;5110114;27;43989;-66
2023/10/22 05:08:40;;;;;;;0.60;0.60;;;20.00;75.10;;;;;;5110367;27;43682;-65
2023/10/22 05:11:13;;;;;;;0.50;0.50;;;20.10;75.00;;;;;;5109191;27;43418;-66
2023/10/22 05:13:41;;;;;;;0.50;0.50;;;20.10;74.90;;;;;;5110320;27;43485;-66
2023/10/22 05:16:10;;;;;;;0.60;0.60;;;20.00;75.00;;;;;;5110519;27;43473;-66
2023/10/22 05:18:38;;;;;;;0.90;0.90;;;20.00;75.30;;;;;;5110528;27;44444;-66
2023/10/22 05:21:07;;;;;;;0.60;0.60;;;19.90;75.70;;;;;;5110216;27;43805;-66
2023/10/22 05:23:35;;;;;;;0.60;0.60;;;19.80;75.90;;;;;;5110215;27;43491;-66
2023/10/22 05:26:06;;;;;;;0.63;0.63;;;19.80;75.80;;;;;;5117828;27;43684;-69
2023/10/22 05:28:34;;;;;;;0.70;0.70;;;19.80;75.80;;;;;;5123440;27;43568;-69
2023/10/22 05:31:02;;;;;;;0.50;0.50;;;19.80;75.90;;;;;;5120830;27;43398;-70
2023/10/22 05:33:30;;;;;;;0.60;0.60;;;19.70;76.20;;;;;;5124089;27;43697;-69
2023/10/22 05:35:58;;;;;;;0.70;0.70;;;19.70;76.40;;;;;;5123938;27;43477;-69
2023/10/22 05:38:26;;;;;;;0.67;0.67;;;19.70;76.30;;;;;;5122487;27;46116;-69
2023/10/22 05:40:54;;;;;;;0.47;0.47;;;19.70;76.20;;;;;;5123452;27;43403;-68
2023/10/22 05:43:24;;;;;;;0.53;0.53;;;19.70;76.20;;;;;;5124232;27;43453;-69
2023/10/22 05:45:57;;;;;;;0.60;0.60;;;19.60;76.30;;;;;;5116848;27;43432;-70
2023/10/22 05:48:25;;;;;;;0.50;0.50;;;19.60;76.70;;;;;;5105226;27;43901;-71
2023/10/22 05:50:53;;;;;;;0.50;0.50;;;19.60;76.40;;;;;;5107174;27;43443;-71
2023/10/22 05:53:21;;;;;;;0.60;0.60;;;19.60;76.30;;;;;;5110587;27;43459;-70
2023/10/22 05:55:57;;;;;;;0.67;0.67;;;19.70;76.40;;;;;;5109680;27;43456;-71
2023/10/22 05:58:26;;;;;;;0.60;0.60;;;19.60;76.40;;;;;;5110903;27;43630;-71
2023/10/22 06:00:54;;;;;;;0.50;0.50;;;19.60;76.90;;;;;;5110004;27;44117;-71
2023/10/22 06:03:22;;;;;;;0.60;0.60;;;19.70;76.70;;;;;;5110445;27;43411;-71
2023/10/22 06:05:51;;;;;;;0.60;0.60;;;19.80;76.30;;;;;;5111848;27;43457;-72
2023/10/22 06:08:19;;;;;;;0.53;0.53;;;19.90;75.80;;;;;;5110010;27;43554;-71
2023/10/22 06:10:47;;;;;;;0.60;0.60;;;20.10;75.30;;;;;;5122621;27;44698;-72
2023/10/22 06:13:15;;;;;;;0.60;0.60;;;20.10;75.00;;;;;;5109732;27;43409;-71
2023/10/22 06:15:45;;;;;;;0.60;0.60;;;20.10;75.00;;;;;;5110708;27;43453;-71
2023/10/22 06:18:13;;;;;;;0.60;0.60;;;20.00;75.10;;;;;;5110345;27;43681;-71
2023/10/22 06:20:41;;;;;;;0.60;0.60;;;19.90;75.10;;;;;;5106092;27;43529;-71
2023/10/22 06:23:10;;;;;;;0.57;0.57;;;19.90;75.80;;;;;;5105695;27;43478;-71
2023/10/22 06:25:38;;;;;;;0.67;0.67;;;19.80;75.90;;;;;;5105487;27;43343;-71
2023/10/22 06:28:06;;;;;;;0.60;0.60;;;19.80;75.90;;;;;;5106231;27;43903;-71
2023/10/22 06:30:34;;;;;;;0.50;0.50;;;19.80;75.90;;;;;;5109621;27;43540;-72
2023/10/22 06:33:03;;;;;;;0.60;0.60;;;19.80;76.00;;;;;;5108467;27;43444;-72
2023/10/22 06:35:32;;;;;;;0.60;0.60;;;19.70;76.30;;;;;;5106175;27;43481;-70
2023/10/22 06:38:00;;;;;;;0.60;0.60;;;19.70;76.60;;;;;;5105457;27;44075;-70
2023/10/22 06:40:28;;;;;;;0.83;0.83;;;19.80;76.30;;;;;;5106610;27;43754;-70
2023/10/22 06:42:56;;;;;;;0.60;0.60;;;19.80;76.00;;;;;;5101771;27;43482;-70
2023/10/22 06:45:27;;;;;;;0.60;0.60;;;19.80;75.80;;;;;;5110239;27;43410;-69
2023/10/22 06:47:56;;;;;;;0.60;0.60;;;19.80;75.80;;;;;;5110185;27;43918;-69
2023/10/22 06:50:26;;;;;;;0.50;0.50;;;19.80;76.10;;;;;;5110632;27;43415;-69
2023/10/22 06:52:54;;;;;;;0.60;0.60;;;19.80;76.10;;;;;;5109141;27;43390;-69
2023/10/22 06:55:22;;;;;;;0.57;0.57;;;19.80;76.00;;;;;;5114334;27;43401;-70
2023/10/22 06:57:50;;;;;;;0.53;0.53;;;19.70;75.90;;;;;;5126769;27;43604;-70
2023/10/22 07:00:18;;;;;;;0.73;0.73;;;19.70;76.10;;;;;;5126485;27;43355;-69
2023/10/22 07:02:46;;;;;;;0.53;0.53;;;19.70;76.60;;;;;;5125488;27;43762;-69
2023/10/22 07:05:15;;;;;;;0.60;0.60;;;19.70;76.50;;;;;;5124912;27;43395;-69
2023/10/22 07:07:44;;;;;;;0.60;0.60;;;19.60;76.20;;;;;;5115644;27;45376;-69
2023/10/22 07:10:12;;;;;;;0.57;0.57;;;19.60;76.20;;;;;;5125822;27;43408;-69
2023/10/22 07:12:40;;;;;;;0.57;0.57;;;19.60;76.30;;;;;;5127438;27;43452;-69
2023/10/22 07:15:12;;;;;;;0.60;0.60;;;19.60;76.80;;;;;;5142980;27;43631;-69
2023/10/22 07:17:40;;;;;;;0.70;0.70;;;19.60;76.80;;;;;;5141579;27;45967;-69
2023/10/22 07:20:08;;;;;;;0.80;0.80;;;19.70;76.40;;;;;;5126709;27;43384;-69
2023/10/22 07:22:36;;;;;;;0.63;0.63;;;19.90;76.00;;;;;;5126052;27;43940;-69
2023/10/22 07:25:07;;;;;;;0.60;0.60;;;20.00;75.40;;;;;;5127577;27;43501;-69
2023/10/22 07:27:35;;;;;;;0.50;0.50;;;20.00;75.20;;;;;;5127814;27;43615;-69
2023/10/22 07:30:03;;;;;;;0.50;0.50;;;20.00;75.10;;;;;;5126738;27;43313;-69
2023/10/22 07:32:31;;;;;;;0.50;0.50;;;20.00;75.30;;;;;;5127641;27;43718;-69
2023/10/22 07:34:59;;;;;;;0.53;0.53;;;19.90;75.40;;;;;;5127371;27;43534;-69
2023/10/22 07:37:27;;;;;;;0.60;0.60;;;19.80;75.80;;;;;;5120769;27;43957;-69
2023/10/22 07:39:55;;;;;;;0.30;0.30;;;19.80;76.10;;;;;;5126772;27;43354;-69
2023/10/22 07:42:25;;;;;;;0.63;0.63;;;19.80;76.10;;;;;;5126838;27;43346;-69
2023/10/22 07:44:53;;;;;;;0.60;0.60;;;19.70;76.10;;;;;;5125678;27;43444;-70
2023/10/22 07:47:21;;;;;;;0.53;0.53;;;19.70;76.10;;;;;;5109821;27;43673;-69
2023/10/22 07:49:52;;;;;;;0.60;0.60;;;19.60;76.30;;;;;;5096447;27;43512;-69
2023/10/22 07:52:20;;;;;;;0.50;0.50;;;19.70;76.70;;;;;;5109875;27;44078;-69
2023/10/22 07:54:50;;;;;;;0.40;0.40;;;19.70;76.60;;;;;;5110377;27;43395;-69
2023/10/22 07:57:18;;;;;;;0.60;0.60;;;19.60;76.40;;;;;;5109592;27;43846;-69
2023/10/22 07:59:48;;;;;;;0.50;0.50;;;19.60;76.40;;;;;;5109103;27;44093;-69
2023/10/22 08:02:16;;;;;;;0.60;0.60;;;19.60;76.50;;;;;;5109580;27;43337;-69
2023/10/22 08:04:44;;;;;;;0.67;0.67;;;19.60;76.90;;;;;;5107252;27;44068;-69
2023/10/22 08:07:12;;;;;;;0.50;0.50;;;19.60;76.70;;;;;;5109122;27;43774;-70
2023/10/22 08:09:40;;;;;;;0.50;0.50;;;19.80;76.30;;;;;;5105396;27;43571;-69
2023/10/22 08:12:08;;;;;;;0.80;0.80;;;19.90;75.80;;;;;;5109712;27;43796;-69
2023/10/22 08:14:36;;;;;;;0.50;0.50;;;20.00;75.40;;;;;;5105727;27;43537;-70
2023/10/22 08:17:06;;;;;;;0.80;0.80;;;20.00;75.30;;;;;;5108241;27;43550;-70
2023/10/22 08:19:34;;;;;;;0.60;0.60;;;19.90;75.20;;;;;;5099002;27;44304;-70
2023/10/22 08:22:02;;;;;;;0.53;0.53;;;19.90;75.40;;;;;;5109385;27;43505;-69
2023/10/22 08:24:30;;;;;;;0.60;0.60;;;19.80;75.60;;;;;;5107139;27;43349;-69
2023/10/22 08:27:00;;;;;;;0.53;0.53;;;19.80;76.20;;;;;;5118716;27;45900;-69
2023/10/22 08:29:28;;;;;;;0.60;0.60;;;19.80;76.90;;;;;;5106143;27;43439;-70
2023/10/22 08:31:56;;;;;;;0.40;0.40;;;19.70;76.00;;;;;;5109183;27;43868;-70
2023/10/22 08:34:25;;;;;;;0.50;0.50;;;19.70;76.00;;;;;;5104237;27;43564;-70
2023/10/22 08:36:53;;;;;;;0.67;0.67;;;19.70;76.10;;;;;;5107627;27;45670;-70
2023/10/22 08:39:22;;;;;;;0.50;0.50;;;19.60;76.40;;;;;;5108893;27;43404;-70
2023/10/22 08:41:55;;;;;;;0.50;0.50;;;19.60;76.70;;;;;;5107820;27;43361;-70
2023/10/22 08:44:23;;;;;;;0.70;0.70;;;19.60;76.40;;;;;;5107540;27;43481;-70
2023/10/22 08:46:51;;;;;;;0.60;0.60;;;19.60;76.40;;;;;;5103108;27;43615;-70
2023/10/22 08:49:19;;;;;;;0.60;0.60;;;19.60;76.40;;;;;;5108110;27;43970;-73
2023/10/22 08:51:49;;;;;;;0.70;0.70;;;19.60;76.60;;;;;;5102742;27;43412;-70
2023/10/22 08:54:17;;;;;;;0.73;0.73;;;19.60;77.00;;;;;;5103452;27;43510;-70
2023/10/22 08:56:46;;;;;;;0.70;0.70;;;19.70;76.80;;;;;;5101685;27;43878;-66
2023/10/22 08:59:14;;;;;;;0.80;0.80;;;19.80;76.20;;;;;;5104078;27;43435;-67
2023/10/22 09:01:42;;;;;;;0.93;0.93;;;19.90;75.70;;;;;;5110212;27;43400;-67
2023/10/22 09:04:10;;;;;;;0.80;0.80;;;20.00;75.30;;;;;;5110759;27;43466;-67
2023/10/22 09:06:38;;;;;;;0.90;0.90;;;20.00;75.20;;;;;;5111901;27;43586;-66
2023/10/22 09:09:07;;;;;;;0.70;0.70;;;20.00;75.30;;;;;;5110820;27;43470;-66
2023/10/22 09:11:35;;;;;;;0.70;0.70;;;19.90;75.20;;;;;;5105746;27;43444;-67
2023/10/22 09:14:17;;;;;;;0.80;0.80;;;19.80;75.40;;;;;;5107627;27;44006;-66
2023/10/22 09:16:45;;;;;;;0.53;0.53;;;19.80;76.20;;;;;;5104617;27;43610;-66
2023/10/22 09:19:13;;;;;;;0.83;0.83;;;19.80;76.20;;;;;;5103210;27;43896;-66
2023/10/22 09:21:42;;;;;;;0.90;0.90;;;19.80;75.90;;;;;;5101756;27;43501;-67
2023/10/22 09:24:11;;;;;;;0.97;0.97;;;19.70;76.00;;;;;;5105831;27;43510;-67
2023/10/22 09:26:43;;;;;;;0.90;0.90;;;19.70;76.10;;;;;;5111251;27;43598;-67
2023/10/22 09:29:11;;;;;;;1.07;0.93;;;19.60;76.50;;;;;;5115011;27;43416;-67
2023/10/22 09:31:39;;;;;;;0.80;0.80;;;19.70;76.70;;;;;;5114767;27;43972;-66
2023/10/22 09:34:23;;;;;;;0.80;0.80;;;19.60;76.40;;;;;;5114924;27;43414;-67
2023/10/22 09:36:54;;;;;;;0.90;0.90;;;19.70;76.50;;;;;;5113961;27;43598;-66
2023/10/22 09:39:36;;;;;;;1.00;0.90;;;19.60;76.40;;;;;;5112212;27;43547;-66
2023/10/22 09:42:05;;;;;;;1.07;0.90;;;19.60;77.50;;;;;;5107216;27;43503;-68
2023/10/22 09:44:37;;;;;;;0.90;0.90;;;19.60;76.90;;;;;;5114578;27;43486;-66
2023/10/22 09:47:06;;;;;;;1.17;1.00;;;19.70;76.60;;;;;;5111156;27;43606;-67
2023/10/22 09:49:35;;;;;;;0.87;0.87;;;19.80;75.90;;;;;;5114124;27;43450;-66
2023/10/22 09:52:04;;;;;;;1.00;1.00;;;19.90;75.60;;;;;;5114508;27;43536;-67
2023/10/22 09:54:37;;;;;;;0.83;0.83;;;20.00;75.60;;;;;;5114092;27;43339;-67
2023/10/22 09:57:09;;;;;;;0.97;0.90;;;19.90;75.40;;;;;;5111598;27;44265;-66
2023/10/22 09:59:38;;;;;;;0.83;0.83;;;19.90;75.60;;;;;;5112954;27;43439;-66
2023/10/22 10:02:06;;;;;;;0.87;0.87;;;19.80;75.70;;;;;;5112181;27;43402;-66
2023/10/22 10:04:35;;;;;;;0.90;0.90;;;19.80;76.30;;;;;;5114513;27;43508;-66
2023/10/22 10:07:04;;;;;;;0.90;0.90;;;19.70;76.40;;;;;;5112356;27;43742;-71
2023/10/22 10:09:32;;;;;;;0.90;0.90;;;19.70;76.20;;;;;;5109808;27;43422;-71
2023/10/22 10:12:02;;;;;;;0.90;0.90;;;19.70;76.10;;;;;;5097475;27;43624;-72
2023/10/22 10:14:42;;;;;;;1.00;1.00;;;19.60;76.20;;;;;;5111917;27;43458;-71
2023/10/22 10:17:10;;;;;;;1.50;1.00;;;19.60;76.40;;;;;;5111219;27;44319;-71
2023/10/22 10:19:38;;;;;;;0.90;0.90;;;19.60;76.80;;;;;;5109120;27;43424;-71
2023/10/22 10:22:07;;;;;;;1.40;1.07;;;19.70;75.90;;;;;;5109360;27;43420;-71
2023/10/22 10:24:35;;;;;;;1.50;0.90;;;19.80;75.70;;;;;;5111577;27;43335;-72
2023/10/22 10:27:27;;;;;;;0.90;0.90;;;19.80;75.60;;;;;;5111676;27;43671;-70
2023/10/22 10:30:14;;;;;;;0.90;0.90;;;19.80;75.30;;;;;;5109109;27;43457;-70
2023/10/22 10:32:43;;;;;;;0.87;0.87;;;19.80;75.80;;;;;;5107471;27;43543;-70
2023/10/22 10:35:22;;;;;;;1.03;1.03;;;19.80;75.80;;;;;;5107368;27;43423;-70
2023/10/22 10:38:22;;;;;;;0.97;0.97;;;19.80;75.70;;;;;;5105346;27;43908;-70
2023/10/22 10:40:51;;;;;;;1.13;0.90;;;19.80;75.70;;;;;;5101246;27;43522;-69
2023/10/22 10:43:22;;;;;;;2.87;1.60;;;19.70;75.60;;;;;;5103114;27;44048;-69
2023/10/22 10:46:24;;;;;;;8.00;2.77;;;19.70;76.30;;;;;;5105130;27;43927;-69
2023/10/22 10:48:53;;;;;;;7.47;3.57;;;19.70;76.20;;;;;;5098300;27;43611;-69
2023/10/22 10:51:24;;;;;;;8.47;3.60;;;19.70;76.10;;;;;;5103095;27;43608;-69
2023/10/22 10:54:20;;;;;;;11.33;4.23;;;19.70;76.20;;;;;;5102988;27;43398;-69
2023/10/22 10:56:53;;;;;;;29.67;8.97;;;19.60;76.20;;;;;;5104399;27;43903;-70
2023/10/22 10:59:33;;;;;;;24.30;8.03;;;19.60;77.40;;;;;;5106606;27;44958;-70
2023/10/22 11:02:06;;;;;;;24.00;8.70;;;19.60;76.30;;;;;;5107294;27;43533;-70
2023/10/22 11:04:38;;;;;;;25.10;8.27;;;19.60;76.30;;;;;;5106822;27;43453;-69
2023/10/22 11:07:11;;;;;;;25.03;8.57;;;19.60;76.50;;;;;;5100755;27;43862;-69
2023/10/22 11:09:54;;;;;;;29.00;9.20;;;19.60;76.70;;;;;;5102976;27;43594;-70
2023/10/22 11:12:22;;;;;;;27.30;9.87;;;19.60;76.90;;;;;;5101136;27;43506;-69
2023/10/22 11:14:56;;;;;;;28.43;9.27;;;19.60;76.60;;;;;;5107526;27;43339;-69
2023/10/22 11:17:24;;;;;;;22.73;9.13;;;19.80;76.20;;;;;;5106691;27;43404;-69
2023/10/22 11:19:52;;;;;;;24.57;8.90;;;19.90;75.60;;;;;;5107402;27;43738;-69
2023/10/22 11:22:21;;;;;;;20.10;8.10;;;20.00;75.20;;;;;;5102018;27;43524;-70
2023/10/22 11:24:49;;;;;;;20.93;8.17;;;20.10;75.00;;;;;;5099323;27;43386;-70
2023/10/22 11:27:16;;;;;;;16.97;7.30;;;20.00;74.90;;;;;;5105119;27;43456;-71
2023/10/22 11:29:47;;;;;;;20.40;7.83;;;20.00;75.20;;;;;;5099090;27;44533;-70
2023/10/22 11:32:17;;;;;;;20.60;8.33;;;19.90;75.40;;;;;;5102604;27;43481;-70
2023/10/22 11:34:49;;;;;;;20.73;7.60;;;19.80;75.90;;;;;;5101922;27;43670;-71
2023/10/22 11:37:20;;;;;;;19.70;8.23;;;19.80;75.90;;;;;;5104070;27;43895;-65
2023/10/22 11:39:48;;;;;;;21.57;8.13;;;19.80;75.80;;;;;;5106141;27;44019;-67
2023/10/22 11:42:16;;;;;;;15.63;7.07;;;19.80;76.30;;;;;;5102389;27;43408;-67
2023/10/22 11:44:45;;;;;;;20.03;7.57;;;19.80;76.50;;;;;;5097814;27;43460;-67
2023/10/22 11:47:27;;;;;;;16.50;6.63;;;19.70;75.50;;;;;;5107631;27;43492;-66
2023/10/22 11:49:55;;;;;;;16.13;7.03;;;19.80;74.10;;;;;;5107828;27;43671;-67
2023/10/22 11:52:40;;;;;;;13.27;5.80;;;19.80;73.40;;;;;;5105026;27;43502;-67
2023/10/22 11:55:09;;;;;;;17.97;6.70;;;19.90;73.50;;;;;;5105512;27;43900;-66
2023/10/22 11:57:55;;;;;;;18.10;6.70;;;19.90;73.90;;;;;;5105652;27;43399;-66
2023/10/22 12:00:23;;;;;;;11.57;5.97;;;19.90;74.10;;;;;;5103780;27;43606;-67
2023/10/22 12:02:52;;;;;;;14.40;6.40;;;20.00;74.20;;;;;;5105481;27;43383;-66
2023/10/22 12:05:21;;;;;;;13.47;6.20;;;19.90;74.00;;;;;;5095406;27;43367;-66
2023/10/22 12:07:49;;;;;;;10.60;6.33;;;19.90;74.10;;;;;;5107743;27;43531;-66
2023/10/22 12:10:17;;;;;;;11.83;5.73;;;19.90;74.10;;;;;;5105846;27;46077;-66
2023/10/22 12:12:46;;;;;;;11.87;5.73;;;19.90;74.20;;;;;;5102005;27;43508;-66
2023/10/22 12:15:14;;;;;;;13.53;6.30;;;19.90;74.10;;;;;;5104815;27;43488;-67
2023/10/22 12:17:42;;;;;;;13.00;6.20;;;19.90;74.20;;;;;;5105678;27;43577;-66
2023/10/22 12:20:12;;;;;;;12.17;6.00;;;20.00;73.60;;;;;;5106187;27;43973;-66
2023/10/22 12:22:40;;;;;;;13.10;5.73;;;20.10;73.00;;;;;;5100656;27;43970;-66
2023/10/22 12:25:08;;;;;;;12.97;5.80;;;20.20;72.40;;;;;;5109022;27;43412;-69
2023/10/22 12:27:37;;;;;;;12.63;6.43;;;20.40;71.80;;;;;;5109283;27;43284;-69
2023/10/22 12:30:06;;;;;;;11.00;5.70;;;20.60;71.30;;;;;;5102008;27;43590;-69
2023/10/22 12:32:34;;;;;;;13.00;5.97;;;20.80;70.60;;;;;;5102284;27;43463;-69
2023/10/22 12:35:04;;;;;;;10.23;5.73;;;20.90;69.80;;;;;;5106385;27;44034;-69
2023/10/22 12:37:33;;;;;;;10.80;5.23;;;21.10;69.40;;;;;;5104074;27;43452;-68
2023/10/22 12:40:01;;;;;;;13.27;5.30;;;21.20;69.00;;;;;;5106780;27;43603;-69
2023/10/22 12:42:29;;;;;;;13.13;5.67;;;21.30;68.70;;;;;;5103116;27;44089;-69
2023/10/22 12:44:57;;;;;;;11.07;5.40;;;21.30;68.40;;;;;;5103136;27;43880;-66
2023/10/22 12:47:25;;;;;;;10.30;5.10;;;21.30;68.50;;;;;;5102024;27;43365;-66
2023/10/22 12:49:53;;;;;;;10.53;5.40;;;21.20;68.80;;;;;;5119795;27;45712;-66
2023/10/22 12:52:21;;;;;;;10.33;5.17;;;21.00;69.40;;;;;;5099059;27;43498;-66
2023/10/22 12:54:51;;;;;;;10.07;5.40;;;20.90;69.70;;;;;;5096362;27;43419;-66
2023/10/22 12:57:19;;;;;;;10.97;5.33;;;20.80;69.70;;;;;;5105162;27;44047;-66